Terminal Aerodrome Forecast
Issued by NWS Twin Cities, MN

Home | Current Version | Previous Version | Text Only | Print | Product List | Glossary On
Versions: 1 2 3 4 5 6 7 8 9 10 11 12 13 14 15 16 17
000
FTUS43 KMPX 061452 AAA
TAFEAU
TAF AMD
KEAU 061452Z 0615/0712 12010KT 6SM BR BKN006 OVC025
      TEMPO 0615/0618 3SM -SHRA BR OVC006
     FM061800 29012G18KT 6SM -SHRA BR VCTS SCT008 OVC015CB
     FM062300 35008KT P6SM SCT025 BKN080
     FM070400 35005KT P6SM SKC=

USA.gov is the U.S. government's official web portal to all federal, state and local government web resources and services.